sensor_id;sensor_type;location;lat;lon;timestamp;temperature;humidity
5868;DHT22;2960;49.142;7.768;2023-02-24T00:01:12;11.00;71.20
5868;DHT22;2960;49.142;7.768;2023-02-24T00:03:44;11.00;71.20
5868;DHT22;2960;49.142;7.768;2023-02-24T00:06:11;11.00;71.20
5868;DHT22;2960;49.142;7.768;2023-02-24T00:08:41;11.00;71.20
5868;DHT22;2960;49.142;7.768;2023-02-24T00:11:14;11.00;71.20
5868;DHT22;2960;49.142;7.768;2023-02-24T00:13:44;11.00;71.30
5868;DHT22;2960;49.142;7.768;2023-02-24T00:16:13;10.90;71.20
5868;DHT22;2960;49.142;7.768;2023-02-24T00:18:42;10.90;72.10
5868;DHT22;2960;49.142;7.768;2023-02-24T00:21:10;10.90;71.40
5868;DHT22;2960;49.142;7.768;2023-02-24T00:23:41;10.90;71.50
5868;DHT22;2960;49.142;7.768;2023-02-24T00:26:14;11.00;71.70
5868;DHT22;2960;49.142;7.768;2023-02-24T00:28:42;10.80;71.60
5868;DHT22;2960;49.142;7.768;2023-02-24T00:31:11;10.80;71.70
5868;DHT22;2960;49.142;7.768;2023-02-24T00:33:40;10.80;71.80
5868;DHT22;2960;49.142;7.768;2023-02-24T00:36:09;10.80;71.90
5868;DHT22;2960;49.142;7.768;2023-02-24T00:38:39;10.80;71.90
5868;DHT22;2960;49.142;7.768;2023-02-24T00:41:12;10.80;71.90
5868;DHT22;2960;49.142;7.768;2023-02-24T00:43:42;10.80;72.00
5868;DHT22;2960;49.142;7.768;2023-02-24T00:46:12;10.80;72.00
5868;DHT22;2960;49.142;7.768;2023-02-24T00:48:42;10.70;72.00
5868;DHT22;2960;49.142;7.768;2023-02-24T00:51:12;10.70;72.10
5868;DHT22;2960;49.142;7.768;2023-02-24T00:53:42;10.70;72.20
5868;DHT22;2960;49.142;7.768;2023-02-24T00:56:10;10.70;72.20
5868;DHT22;2960;49.142;7.768;2023-02-24T00:58:39;10.70;72.30
5868;DHT22;2960;49.142;7.768;2023-02-24T01:01:11;10.70;72.30
5868;DHT22;2960;49.142;7.768;2023-02-24T01:03:39;10.70;72.40
5868;DHT22;2960;49.142;7.768;2023-02-24T01:06:08;10.70;72.40
5868;DHT22;2960;49.142;7.768;2023-02-24T01:08:36;10.70;72.30
5868;DHT22;2960;49.142;7.768;2023-02-24T01:11:05;10.70;73.10
5868;DHT22;2960;49.142;7.768;2023-02-24T01:13:51;10.70;72.20
5868;DHT22;2960;49.142;7.768;2023-02-24T01:16:18;10.70;72.20
5868;DHT22;2960;49.142;7.768;2023-02-24T01:18:48;10.70;72.20
5868;DHT22;2960;49.142;7.768;2023-02-24T01:21:17;10.70;72.40
5868;DHT22;2960;49.142;7.768;2023-02-24T01:23:46;10.70;72.40
5868;DHT22;2960;49.142;7.768;2023-02-24T01:26:15;10.70;72.50
5868;DHT22;2960;49.142;7.768;2023-02-24T01:28:42;10.70;72.60
5868;DHT22;2960;49.142;7.768;2023-02-24T01:31:14;10.70;72.60
5868;DHT22;2960;49.142;7.768;2023-02-24T01:33:42;10.70;72.60
5868;DHT22;2960;49.142;7.768;2023-02-24T01:36:12;10.70;72.60
5868;DHT22;2960;49.142;7.768;2023-02-24T01:38:40;10.60;72.60
5868;DHT22;2960;49.142;7.768;2023-02-24T01:41:09;10.60;72.70
5868;DHT22;2960;49.142;7.768;2023-02-24T01:43:59;10.60;72.70
5868;DHT22;2960;49.142;7.768;2023-02-24T01:46:34;10.60;72.70
5868;DHT22;2960;49.142;7.768;2023-02-24T01:49:06;10.60;72.80
5868;DHT22;2960;49.142;7.768;2023-02-24T01:51:39;10.60;72.80
5868;DHT22;2960;49.142;7.768;2023-02-24T01:54:09;10.60;72.80
5868;DHT22;2960;49.142;7.768;2023-02-24T01:56:39;10.60;72.80
5868;DHT22;2960;49.142;7.768;2023-02-24T01:59:09;10.70;72.90
5868;DHT22;2960;49.142;7.768;2023-02-24T02:01:38;10.60;72.90
5868;DHT22;2960;49.142;7.768;2023-02-24T02:04:13;10.50;72.90
5868;DHT22;2960;49.142;7.768;2023-02-24T02:06:43;10.60;73.10
5868;DHT22;2960;49.142;7.768;2023-02-24T02:09:11;10.50;73.00
5868;DHT22;2960;49.142;7.768;2023-02-24T02:11:40;10.60;72.40
5868;DHT22;2960;49.142;7.768;2023-02-24T02:14:10;10.60;73.00
5868;DHT22;2960;49.142;7.768;2023-02-24T02:16:57;10.60;73.00
5868;DHT22;2960;49.142;7.768;2023-02-24T02:19:55;10.50;73.00
5868;DHT22;2960;49.142;7.768;2023-02-24T02:23:12;10.50;73.00
5868;DHT22;2960;49.142;7.768;2023-02-24T02:26:28;10.50;73.00
5868;DHT22;2960;49.142;7.768;2023-02-24T02:32:39;10.50;73.10
5868;DHT22;2960;49.142;7.768;2023-02-24T02:35:20;10.50;73.10
5868;DHT22;2960;49.142;7.768;2023-02-24T02:37:53;10.50;73.20
5868;DHT22;2960;49.142;7.768;2023-02-24T02:40:27;10.50;73.20
5868;DHT22;2960;49.142;7.768;2023-02-24T02:43:05;10.50;73.20
5868;DHT22;2960;49.142;7.768;2023-02-24T02:45:42;10.50;73.20
5868;DHT22;2960;49.142;7.768;2023-02-24T02:48:16;10.50;73.30
5868;DHT22;2960;49.142;7.768;2023-02-24T02:50:50;10.50;73.30
5868;DHT22;2960;49.142;7.768;2023-02-24T02:53:24;10.50;73.30
5868;DHT22;2960;49.142;7.768;2023-02-24T02:55:58;10.50;73.30
5868;DHT22;2960;49.142;7.768;2023-02-24T02:58:33;10.50;73.30
5868;DHT22;2960;49.142;7.768;2023-02-24T03:01:04;10.50;73.40
5868;DHT22;2960;49.142;7.768;2023-02-24T03:03:37;10.50;73.50
5868;DHT22;2960;49.142;7.768;2023-02-24T03:06:11;10.40;73.50
5868;DHT22;2960;49.142;7.768;2023-02-24T03:08:44;10.40;73.60
5868;DHT22;2960;49.142;7.768;2023-02-24T03:11:18;10.40;73.80
5868;DHT22;2960;49.142;7.768;2023-02-24T03:13:47;10.40;73.80
5868;DHT22;2960;49.142;7.768;2023-02-24T03:16:17;10.40;73.90
5868;DHT22;2960;49.142;7.768;2023-02-24T03:18:52;10.40;73.90
5868;DHT22;2960;49.142;7.768;2023-02-24T03:21:28;10.40;73.90
5868;DHT22;2960;49.142;7.768;2023-02-24T03:23:59;10.40;73.80
5868;DHT22;2960;49.142;7.768;2023-02-24T03:26:30;10.40;74.50
5868;DHT22;2960;49.142;7.768;2023-02-24T03:29:04;10.40;73.80
5868;DHT22;2960;49.142;7.768;2023-02-24T03:31:41;10.40;73.80
5868;DHT22;2960;49.142;7.768;2023-02-24T03:34:14;10.40;73.80
5868;DHT22;2960;49.142;7.768;2023-02-24T03:36:46;10.40;73.80
5868;DHT22;2960;49.142;7.768;2023-02-24T03:39:14;10.30;73.80
5868;DHT22;2960;49.142;7.768;2023-02-24T03:41:49;10.30;73.90
5868;DHT22;2960;49.142;7.768;2023-02-24T03:44:20;10.30;74.00
5868;DHT22;2960;49.142;7.768;2023-02-24T03:46:49;10.30;74.10
5868;DHT22;2960;49.142;7.768;2023-02-24T03:49:17;10.30;74.10
5868;DHT22;2960;49.142;7.768;2023-02-24T03:51:58;10.30;74.10
5868;DHT22;2960;49.142;7.768;2023-02-24T03:54:55;10.30;74.10
5868;DHT22;2960;49.142;7.768;2023-02-24T03:57:38;10.20;74.10
5868;DHT22;2960;49.142;7.768;2023-02-24T04:00:23;10.20;74.20
5868;DHT22;2960;49.142;7.768;2023-02-24T04:03:03;10.30;74.30
5868;DHT22;2960;49.142;7.768;2023-02-24T04:05:43;10.30;74.30
5868;DHT22;2960;49.142;7.768;2023-02-24T04:08:15;10.30;75.00
5868;DHT22;2960;49.142;7.768;2023-02-24T04:10:48;10.30;74.10
5868;DHT22;2960;49.142;7.768;2023-02-24T04:13:24;10.30;74.10
5868;DHT22;2960;49.142;7.768;2023-02-24T04:16:03;10.30;74.10
5868;DHT22;2960;49.142;7.768;2023-02-24T04:18:35;10.30;74.10
5868;DHT22;2960;49.142;7.768;2023-02-24T04:21:04;10.30;74.10
5868;DHT22;2960;49.142;7.768;2023-02-24T04:23:38;10.30;74.10
5868;DHT22;2960;49.142;7.768;2023-02-24T04:26:08;10.30;74.10
5868;DHT22;2960;49.142;7.768;2023-02-24T04:28:39;10.30;74.10
5868;DHT22;2960;49.142;7.768;2023-02-24T04:31:09;10.30;74.10
5868;DHT22;2960;49.142;7.768;2023-02-24T04:33:41;10.30;74.10
5868;DHT22;2960;49.142;7.768;2023-02-24T04:36:08;10.30;74.10
5868;DHT22;2960;49.142;7.768;2023-02-24T04:38:38;10.30;74.20
5868;DHT22;2960;49.142;7.768;2023-02-24T04:41:05;10.30;74.20
5868;DHT22;2960;49.142;7.768;2023-02-24T04:43:33;10.30;74.40
5868;DHT22;2960;49.142;7.768;2023-02-24T04:46:00;10.30;74.30
5868;DHT22;2960;49.142;7.768;2023-02-24T04:48:32;10.30;75.10
5868;DHT22;2960;49.142;7.768;2023-02-24T04:51:04;10.30;74.30
5868;DHT22;2960;49.142;7.768;2023-02-24T04:53:31;10.30;74.40
5868;DHT22;2960;49.142;7.768;2023-02-24T04:56:03;10.30;74.30
5868;DHT22;2960;49.142;7.768;2023-02-24T04:58:33;10.30;74.40
5868;DHT22;2960;49.142;7.768;2023-02-24T05:01:06;10.20;74.30
5868;DHT22;2960;49.142;7.768;2023-02-24T05:03:35;10.20;74.40
5868;DHT22;2960;49.142;7.768;2023-02-24T05:06:07;10.20;74.40
5868;DHT22;2960;49.142;7.768;2023-02-24T05:08:39;10.20;74.40
5868;DHT22;2960;49.142;7.768;2023-02-24T05:11:13;10.20;74.40
5868;DHT22;2960;49.142;7.768;2023-02-24T05:13:41;10.20;74.40
5868;DHT22;2960;49.142;7.768;2023-02-24T05:16:13;10.20;74.30
5868;DHT22;2960;49.142;7.768;2023-02-24T05:18:41;10.20;74.20
5868;DHT22;2960;49.142;7.768;2023-02-24T05:21:11;10.20;74.20
5868;DHT22;2960;49.142;7.768;2023-02-24T05:23:59;10.20;74.10
5868;DHT22;2960;49.142;7.768;2023-02-24T05:26:32;10.20;74.50
5868;DHT22;2960;49.142;7.768;2023-02-24T05:29:00;10.20;74.10
5868;DHT22;2960;49.142;7.768;2023-02-24T05:31:31;10.20;74.10
5868;DHT22;2960;49.142;7.768;2023-02-24T05:34:00;10.20;74.70
5868;DHT22;2960;49.142;7.768;2023-02-24T05:36:33;10.20;73.90
5868;DHT22;2960;49.142;7.768;2023-02-24T05:39:02;10.20;73.80
5868;DHT22;2960;49.142;7.768;2023-02-24T05:41:34;10.20;73.80
5868;DHT22;2960;49.142;7.768;2023-02-24T05:44:05;10.20;73.80
5868;DHT22;2960;49.142;7.768;2023-02-24T05:46:35;10.20;73.90
5868;DHT22;2960;49.142;7.768;2023-02-24T05:49:05;10.20;74.00
5868;DHT22;2960;49.142;7.768;2023-02-24T05:51:39;10.20;74.00
5868;DHT22;2960;49.142;7.768;2023-02-24T05:54:09;10.10;73.90
5868;DHT22;2960;49.142;7.768;2023-02-24T05:56:41;10.20;74.10
5868;DHT22;2960;49.142;7.768;2023-02-24T05:59:09;10.20;74.00
5868;DHT22;2960;49.142;7.768;2023-02-24T06:01:42;10.20;74.00
5868;DHT22;2960;49.142;7.768;2023-02-24T06:04:11;10.20;74.00
5868;DHT22;2960;49.142;7.768;2023-02-24T06:06:47;10.20;73.90
5868;DHT22;2960;49.142;7.768;2023-02-24T06:09:17;10.20;73.90
5868;DHT22;2960;49.142;7.768;2023-02-24T06:11:49;10.20;73.90
5868;DHT22;2960;49.142;7.768;2023-02-24T06:14:16;10.20;73.80
5868;DHT22;2960;49.142;7.768;2023-02-24T06:16:46;10.20;73.80
5868;DHT22;2960;49.142;7.768;2023-02-24T06:19:14;10.20;73.70
5868;DHT22;2960;49.142;7.768;2023-02-24T06:21:41;10.30;73.80
5868;DHT22;2960;49.142;7.768;2023-02-24T06:24:10;10.30;73.70
5868;DHT22;2960;49.142;7.768;2023-02-24T06:26:40;10.30;73.70
5868;DHT22;2960;49.142;7.768;2023-02-24T06:29:11;10.30;73.70
5868;DHT22;2960;49.142;7.768;2023-02-24T06:31:40;10.30;73.70
5868;DHT22;2960;49.142;7.768;2023-02-24T06:34:12;10.40;73.80
5868;DHT22;2960;49.142;7.768;2023-02-24T06:36:39;10.30;73.60
5868;DHT22;2960;49.142;7.768;2023-02-24T06:39:07;10.30;73.60
5868;DHT22;2960;49.142;7.768;2023-02-24T06:41:38;10.30;73.60
5868;DHT22;2960;49.142;7.768;2023-02-24T06:44:05;10.30;73.60
5868;DHT22;2960;49.142;7.768;2023-02-24T06:46:35;10.30;73.60
5868;DHT22;2960;49.142;7.768;2023-02-24T06:49:03;10.30;73.60
5868;DHT22;2960;49.142;7.768;2023-02-24T06:51:30;10.30;73.60
5868;DHT22;2960;49.142;7.768;2023-02-24T06:53:58;10.30;73.70
5868;DHT22;2960;49.142;7.768;2023-02-24T06:56:27;10.30;73.70
5868;DHT22;2960;49.142;7.768;2023-02-24T06:58:55;10.30;73.70
5868;DHT22;2960;49.142;7.768;2023-02-24T07:01:25;10.30;73.70
5868;DHT22;2960;49.142;7.768;2023-02-24T07:03:56;10.30;73.80
5868;DHT22;2960;49.142;7.768;2023-02-24T07:06:45;10.20;73.70
5868;DHT22;2960;49.142;7.768;2023-02-24T07:09:18;10.20;73.80
5868;DHT22;2960;49.142;7.768;2023-02-24T07:11:48;10.20;73.80
5868;DHT22;2960;49.142;7.768;2023-02-24T07:14:18;10.20;73.80
5868;DHT22;2960;49.142;7.768;2023-02-24T07:16:47;10.20;73.70
5868;DHT22;2960;49.142;7.768;2023-02-24T07:19:21;10.20;73.70
5868;DHT22;2960;49.142;7.768;2023-02-24T07:21:49;10.30;73.80
5868;DHT22;2960;49.142;7.768;2023-02-24T07:24:19;10.30;73.80
5868;DHT22;2960;49.142;7.768;2023-02-24T07:26:55;10.30;73.70
5868;DHT22;2960;49.142;7.768;2023-02-24T07:29:23;10.30;73.70
5868;DHT22;2960;49.142;7.768;2023-02-24T07:31:50;10.30;73.60
5868;DHT22;2960;49.142;7.768;2023-02-24T07:34:23;10.30;73.50
5868;DHT22;2960;49.142;7.768;2023-02-24T07:36:51;10.30;73.50
5868;DHT22;2960;49.142;7.768;2023-02-24T07:39:20;10.40;73.50
5868;DHT22;2960;49.142;7.768;2023-02-24T07:41:49;10.40;73.50
5868;DHT22;2960;49.142;7.768;2023-02-24T07:44:19;10.40;73.40
5868;DHT22;2960;49.142;7.768;2023-02-24T07:46:47;10.40;73.40
5868;DHT22;2960;49.142;7.768;2023-02-24T07:49:16;10.40;73.30
5868;DHT22;2960;49.142;7.768;2023-02-24T07:51:47;10.40;73.30
5868;DHT22;2960;49.142;7.768;2023-02-24T07:54:17;10.50;73.40
5868;DHT22;2960;49.142;7.768;2023-02-24T07:56:46;10.50;73.40
5868;DHT22;2960;49.142;7.768;2023-02-24T07:59:21;10.50;73.30
5868;DHT22;2960;49.142;7.768;2023-02-24T08:01:50;10.50;73.30
5868;DHT22;2960;49.142;7.768;2023-02-24T08:04:22;10.50;73.30
5868;DHT22;2960;49.142;7.768;2023-02-24T08:06:52;10.50;73.20
5868;DHT22;2960;49.142;7.768;2023-02-24T08:09:29;10.50;73.20
5868;DHT22;2960;49.142;7.768;2023-02-24T08:12:16;10.50;73.20
5868;DHT22;2960;49.142;7.768;2023-02-24T08:14:47;10.50;73.10
5868;DHT22;2960;49.142;7.768;2023-02-24T08:17:17;10.50;73.10
5868;DHT22;2960;49.142;7.768;2023-02-24T08:19:46;10.50;73.10
5868;DHT22;2960;49.142;7.768;2023-02-24T08:22:16;10.50;73.10
5868;DHT22;2960;49.142;7.768;2023-02-24T08:24:51;10.50;73.00
5868;DHT22;2960;49.142;7.768;2023-02-24T08:27:21;10.50;73.00
5868;DHT22;2960;49.142;7.768;2023-02-24T08:29:52;10.50;73.10
5868;DHT22;2960;49.142;7.768;2023-02-24T08:32:30;10.50;73.00
5868;DHT22;2960;49.142;7.768;2023-02-24T08:35:00;10.50;73.10
5868;DHT22;2960;49.142;7.768;2023-02-24T08:37:31;10.40;73.00
5868;DHT22;2960;49.142;7.768;2023-02-24T08:40:06;10.40;73.10
5868;DHT22;2960;49.142;7.768;2023-02-24T08:42:54;10.40;73.10
5868;DHT22;2960;49.142;7.768;2023-02-24T08:45:23;10.50;73.20
5868;DHT22;2960;49.142;7.768;2023-02-24T08:47:53;10.50;73.10
5868;DHT22;2960;49.142;7.768;2023-02-24T08:50:25;10.50;73.00
5868;DHT22;2960;49.142;7.768;2023-02-24T08:52:57;10.50;73.80
5868;DHT22;2960;49.142;7.768;2023-02-24T08:55:25;10.50;73.00
5868;DHT22;2960;49.142;7.768;2023-02-24T08:57:58;10.50;73.00
5868;DHT22;2960;49.142;7.768;2023-02-24T09:00:27;10.60;73.00
5868;DHT22;2960;49.142;7.768;2023-02-24T09:03:14;10.50;72.90
5868;DHT22;2960;49.142;7.768;2023-02-24T09:05:56;10.60;73.00
5868;DHT22;2960;49.142;7.768;2023-02-24T09:08:26;10.60;72.90
5868;DHT22;2960;49.142;7.768;2023-02-24T09:10:58;10.60;72.90
5868;DHT22;2960;49.142;7.768;2023-02-24T09:13:26;10.60;72.90
5868;DHT22;2960;49.142;7.768;2023-02-24T09:15:58;10.60;72.90
5868;DHT22;2960;49.142;7.768;2023-02-24T09:18:27;10.60;73.00
5868;DHT22;2960;49.142;7.768;2023-02-24T09:21:07;10.60;73.00
5868;DHT22;2960;49.142;7.768;2023-02-24T09:24:05;10.60;73.10
5868;DHT22;2960;49.142;7.768;2023-02-24T09:26:35;10.60;73.10
5868;DHT22;2960;49.142;7.768;2023-02-24T09:29:09;10.60;73.20
5868;DHT22;2960;49.142;7.768;2023-02-24T09:31:58;10.60;73.30
5868;DHT22;2960;49.142;7.768;2023-02-24T09:34:31;10.50;73.40
5868;DHT22;2960;49.142;7.768;2023-02-24T09:36:59;10.50;73.60
5868;DHT22;2960;49.142;7.768;2023-02-24T09:39:31;10.50;73.70
5868;DHT22;2960;49.142;7.768;2023-02-24T09:42:23;10.50;73.80
5868;DHT22;2960;49.142;7.768;2023-02-24T09:45:01;10.50;73.90
5868;DHT22;2960;49.142;7.768;2023-02-24T09:47:39;10.50;74.00
5868;DHT22;2960;49.142;7.768;2023-02-24T09:50:27;10.50;74.10
5868;DHT22;2960;49.142;7.768;2023-02-24T09:53:11;10.60;74.20
5868;DHT22;2960;49.142;7.768;2023-02-24T09:55:49;10.60;74.20
5868;DHT22;2960;49.142;7.768;2023-02-24T09:58:39;10.60;74.20
5868;DHT22;2960;49.142;7.768;2023-02-24T10:01:36;10.60;74.30
5868;DHT22;2960;49.142;7.768;2023-02-24T10:04:19;10.60;74.30
5868;DHT22;2960;49.142;7.768;2023-02-24T10:06:58;10.60;74.40
5868;DHT22;2960;49.142;7.768;2023-02-24T10:09:33;10.60;74.60
5868;DHT22;2960;49.142;7.768;2023-02-24T10:12:07;10.60;74.70
5868;DHT22;2960;49.142;7.768;2023-02-24T10:14:45;10.70;74.80
5868;DHT22;2960;49.142;7.768;2023-02-24T10:17:20;10.70;74.90
5868;DHT22;2960;49.142;7.768;2023-02-24T10:20:12;10.70;74.90
5868;DHT22;2960;49.142;7.768;2023-02-24T10:22:58;10.70;75.00
5868;DHT22;2960;49.142;7.768;2023-02-24T10:25:41;10.60;75.00
5868;DHT22;2960;49.142;7.768;2023-02-24T10:28:25;10.70;75.20
5868;DHT22;2960;49.142;7.768;2023-02-24T10:31:07;10.70;75.30
5868;DHT22;2960;49.142;7.768;2023-02-24T10:33:51;10.70;75.20
5868;DHT22;2960;49.142;7.768;2023-02-24T10:36:22;10.70;75.30
5868;DHT22;2960;49.142;7.768;2023-02-24T10:39:01;10.80;75.20
5868;DHT22;2960;49.142;7.768;2023-02-24T10:41:43;10.80;75.30
5868;DHT22;2960;49.142;7.768;2023-02-24T10:44:19;10.80;75.20
5868;DHT22;2960;49.142;7.768;2023-02-24T10:46:58;10.80;75.20
5868;DHT22;2960;49.142;7.768;2023-02-24T10:49:40;10.80;75.30
5868;DHT22;2960;49.142;7.768;2023-02-24T10:52:22;10.80;76.20
5868;DHT22;2960;49.142;7.768;2023-02-24T10:55:23;10.90;75.60
5868;DHT22;2960;49.142;7.768;2023-02-24T10:58:05;11.00;75.80
5868;DHT22;2960;49.142;7.768;2023-02-24T11:00:44;11.10;75.70
5868;DHT22;2960;49.142;7.768;2023-02-24T11:03:37;11.20;75.60
5868;DHT22;2960;49.142;7.768;2023-02-24T11:06:21;11.40;75.50
5868;DHT22;2960;49.142;7.768;2023-02-24T11:09:14;11.50;75.20
5868;DHT22;2960;49.142;7.768;2023-02-24T11:11:58;11.70;75.70
5868;DHT22;2960;49.142;7.768;2023-02-24T11:14:50;11.90;75.80
5868;DHT22;2960;49.142;7.768;2023-02-24T11:17:45;12.40;76.50
5868;DHT22;2960;49.142;7.768;2023-02-24T11:20:23;12.90;76.20
5868;DHT22;2960;49.142;7.768;2023-02-24T11:22:56;13.20;75.00
5868;DHT22;2960;49.142;7.768;2023-02-24T11:25:33;13.40;74.00
5868;DHT22;2960;49.142;7.768;2023-02-24T11:28:02;13.50;73.20
5868;DHT22;2960;49.142;7.768;2023-02-24T11:30:38;13.50;72.60
5868;DHT22;2960;49.142;7.768;2023-02-24T11:33:18;13.40;72.00
5868;DHT22;2960;49.142;7.768;2023-02-24T11:36:02;13.30;71.80
5868;DHT22;2960;49.142;7.768;2023-02-24T11:38:39;13.20;71.40
5868;DHT22;2960;49.142;7.768;2023-02-24T11:41:17;13.00;70.90
5868;DHT22;2960;49.142;7.768;2023-02-24T11:43:59;12.90;70.60
5868;DHT22;2960;49.142;7.768;2023-02-24T11:46:36;12.70;70.80
5868;DHT22;2960;49.142;7.768;2023-02-24T11:49:27;12.70;71.20
5868;DHT22;2960;49.142;7.768;2023-02-24T11:51:58;12.70;71.10
5868;DHT22;2960;49.142;7.768;2023-02-24T11:54:32;12.70;70.70
5868;DHT22;2960;49.142;7.768;2023-02-24T11:57:02;12.70;70.30
5868;DHT22;2960;49.142;7.768;2023-02-24T11:59:36;12.70;70.00
5868;DHT22;2960;49.142;7.768;2023-02-24T12:02:14;12.80;70.50
5868;DHT22;2960;49.142;7.768;2023-02-24T12:04:51;13.10;70.90
5868;DHT22;2960;49.142;7.768;2023-02-24T12:07:24;13.40;70.60
5868;DHT22;2960;49.142;7.768;2023-02-24T12:10:06;13.70;70.20
5868;DHT22;2960;49.142;7.768;2023-02-24T12:12:46;13.90;69.50
5868;DHT22;2960;49.142;7.768;2023-02-24T12:15:21;14.10;68.80
5868;DHT22;2960;49.142;7.768;2023-02-24T12:17:55;14.20;68.20
5868;DHT22;2960;49.142;7.768;2023-02-24T12:20:32;14.20;67.80
5868;DHT22;2960;49.142;7.768;2023-02-24T12:23:11;14.30;67.70
5868;DHT22;2960;49.142;7.768;2023-02-24T12:25:55;14.40;67.20
5868;DHT22;2960;49.142;7.768;2023-02-24T12:28:41;14.40;66.50
5868;DHT22;2960;49.142;7.768;2023-02-24T12:31:24;14.30;66.00
5868;DHT22;2960;49.142;7.768;2023-02-24T12:34:04;14.20;65.60
5868;DHT22;2960;49.142;7.768;2023-02-24T12:37:01;14.10;65.30
5868;DHT22;2960;49.142;7.768;2023-02-24T12:39:48;13.90;65.00
5868;DHT22;2960;49.142;7.768;2023-02-24T12:42:25;13.80;64.90
5868;DHT22;2960;49.142;7.768;2023-02-24T12:45:02;13.70;65.50
5868;DHT22;2960;49.142;7.768;2023-02-24T12:47:51;13.60;64.30
5868;DHT22;2960;49.142;7.768;2023-02-24T12:50:32;13.40;63.90
5868;DHT22;2960;49.142;7.768;2023-02-24T12:53:13;13.30;63.90
5868;DHT22;2960;49.142;7.768;2023-02-24T12:55:51;13.20;63.80
5868;DHT22;2960;49.142;7.768;2023-02-24T12:58:25;13.20;64.00
5868;DHT22;2960;49.142;7.768;2023-02-24T13:01:03;13.10;63.80
5868;DHT22;2960;49.142;7.768;2023-02-24T13:04:06;13.20;63.90
5868;DHT22;2960;49.142;7.768;2023-02-24T13:06:49;13.20;63.60
5868;DHT22;2960;49.142;7.768;2023-02-24T13:09:39;13.10;63.00
5868;DHT22;2960;49.142;7.768;2023-02-24T13:12:16;13.10;62.90
5868;DHT22;2960;49.142;7.768;2023-02-24T13:14:46;12.90;62.60
5868;DHT22;2960;49.142;7.768;2023-02-24T13:17:20;12.90;62.50
5868;DHT22;2960;49.142;7.768;2023-02-24T13:19:50;12.80;62.50
5868;DHT22;2960;49.142;7.768;2023-02-24T13:22:38;12.80;62.60
5868;DHT22;2960;49.142;7.768;2023-02-24T13:25:22;12.70;62.50
5868;DHT22;2960;49.142;7.768;2023-02-24T13:27:56;12.70;62.60
5868;DHT22;2960;49.142;7.768;2023-02-24T13:30:34;12.60;62.40
5868;DHT22;2960;49.142;7.768;2023-02-24T13:33:22;12.50;62.50
5868;DHT22;2960;49.142;7.768;2023-02-24T13:35:52;12.50;62.60
5868;DHT22;2960;49.142;7.768;2023-02-24T13:38:37;12.40;62.60
5868;DHT22;2960;49.142;7.768;2023-02-24T13:41:34;12.40;62.70
5868;DHT22;2960;49.142;7.768;2023-02-24T13:44:22;12.40;62.60
5868;DHT22;2960;49.142;7.768;2023-02-24T13:50:23;12.40;62.70
5868;DHT22;2960;49.142;7.768;2023-02-24T13:53:07;12.30;62.60
5868;DHT22;2960;49.142;7.768;2023-02-24T13:55:52;12.30;62.50
5868;DHT22;2960;49.142;7.768;2023-02-24T13:58:39;12.30;62.50
5868;DHT22;2960;49.142;7.768;2023-02-24T14:01:12;12.30;62.50
5868;DHT22;2960;49.142;7.768;2023-02-24T14:03:43;12.20;62.40
5868;DHT22;2960;49.142;7.768;2023-02-24T14:06:18;12.30;62.50
5868;DHT22;2960;49.142;7.768;2023-02-24T14:08:51;12.30;62.40
5868;DHT22;2960;49.142;7.768;2023-02-24T14:11:23;12.30;62.40
5868;DHT22;2960;49.142;7.768;2023-02-24T14:13:56;12.20;62.30
5868;DHT22;2960;49.142;7.768;2023-02-24T14:16:28;12.20;62.20
5868;DHT22;2960;49.142;7.768;2023-02-24T14:19:01;12.20;62.20
5868;DHT22;2960;49.142;7.768;2023-02-24T14:21:31;12.20;62.20
5868;DHT22;2960;49.142;7.768;2023-02-24T14:24:00;12.20;62.10
5868;DHT22;2960;49.142;7.768;2023-02-24T14:26:43;12.20;62.10
5868;DHT22;2960;49.142;7.768;2023-02-24T14:29:16;12.20;62.10
5868;DHT22;2960;49.142;7.768;2023-02-24T14:31:50;12.20;62.00
5868;DHT22;2960;49.142;7.768;2023-02-24T14:34:21;12.20;61.90
5868;DHT22;2960;49.142;7.768;2023-02-24T14:36:51;12.20;62.00
5868;DHT22;2960;49.142;7.768;2023-02-24T14:39:21;12.20;62.10
5868;DHT22;2960;49.142;7.768;2023-02-24T14:41:51;12.20;62.10
5868;DHT22;2960;49.142;7.768;2023-02-24T14:44:32;12.20;62.00
5868;DHT22;2960;49.142;7.768;2023-02-24T14:47:02;12.20;62.00
5868;DHT22;2960;49.142;7.768;2023-02-24T14:49:36;12.20;62.00
5868;DHT22;2960;49.142;7.768;2023-02-24T14:52:06;12.20;61.80
5868;DHT22;2960;49.142;7.768;2023-02-24T14:54:41;12.10;61.90
5868;DHT22;2960;49.142;7.768;2023-02-24T14:57:19;12.10;61.90
5868;DHT22;2960;49.142;7.768;2023-02-24T14:59:53;12.00;61.80
5868;DHT22;2960;49.142;7.768;2023-02-24T15:02:25;12.00;62.00
5868;DHT22;2960;49.142;7.768;2023-02-24T15:04:55;12.00;62.00
5868;DHT22;2960;49.142;7.768;2023-02-24T15:07:25;11.90;62.00
5868;DHT22;2960;49.142;7.768;2023-02-24T15:09:55;11.90;62.00
5868;DHT22;2960;49.142;7.768;2023-02-24T15:12:29;11.90;61.90
5868;DHT22;2960;49.142;7.768;2023-02-24T15:15:04;11.90;62.00
5868;DHT22;2960;49.142;7.768;2023-02-24T15:17:38;11.90;62.10
5868;DHT22;2960;49.142;7.768;2023-02-24T15:20:24;11.90;62.10
5868;DHT22;2960;49.142;7.768;2023-02-24T15:22:53;11.80;62.00
5868;DHT22;2960;49.142;7.768;2023-02-24T15:25:22;11.80;62.00
5868;DHT22;2960;49.142;7.768;2023-02-24T15:27:52;11.80;62.00
5868;DHT22;2960;49.142;7.768;2023-02-24T15:30:28;11.80;62.10
5868;DHT22;2960;49.142;7.768;2023-02-24T15:33:02;11.70;62.10
5868;DHT22;2960;49.142;7.768;2023-02-24T15:35:33;11.70;62.10
5868;DHT22;2960;49.142;7.768;2023-02-24T15:38:03;11.60;61.90
5868;DHT22;2960;49.142;7.768;2023-02-24T15:40:30;11.60;62.00
5868;DHT22;2960;49.142;7.768;2023-02-24T15:42:58;11.60;61.90
5868;DHT22;2960;49.142;7.768;2023-02-24T15:45:36;11.60;61.90
5868;DHT22;2960;49.142;7.768;2023-02-24T15:48:18;11.60;62.10
5868;DHT22;2960;49.142;7.768;2023-02-24T15:50:46;11.50;61.90
5868;DHT22;2960;49.142;7.768;2023-02-24T15:53:14;11.50;62.00
5868;DHT22;2960;49.142;7.768;2023-02-24T15:55:42;11.50;61.90
5868;DHT22;2960;49.142;7.768;2023-02-24T15:58:14;11.50;61.80
5868;DHT22;2960;49.142;7.768;2023-02-24T16:00:44;11.50;61.70
5868;DHT22;2960;49.142;7.768;2023-02-24T16:03:11;11.50;61.70
5868;DHT22;2960;49.142;7.768;2023-02-24T16:05:38;11.50;61.70
5868;DHT22;2960;49.142;7.768;2023-02-24T16:08:18;11.50;61.70
5868;DHT22;2960;49.142;7.768;2023-02-24T16:10:46;11.60;61.80
5868;DHT22;2960;49.142;7.768;2023-02-24T16:13:17;11.60;61.70
5868;DHT22;2960;49.142;7.768;2023-02-24T16:15:48;11.60;61.60
5868;DHT22;2960;49.142;7.768;2023-02-24T16:18:18;11.60;61.60
5868;DHT22;2960;49.142;7.768;2023-02-24T16:20:47;11.60;61.40
5868;DHT22;2960;49.142;7.768;2023-02-24T16:23:19;11.70;61.50
5868;DHT22;2960;49.142;7.768;2023-02-24T16:25:48;11.60;61.40
5868;DHT22;2960;49.142;7.768;2023-02-24T16:28:19;11.60;61.40
5868;DHT22;2960;49.142;7.768;2023-02-24T16:30:49;11.60;61.50
5868;DHT22;2960;49.142;7.768;2023-02-24T16:33:18;11.70;61.60
5868;DHT22;2960;49.142;7.768;2023-02-24T16:35:47;11.60;61.40
5868;DHT22;2960;49.142;7.768;2023-02-24T16:38:18;11.60;61.50
5868;DHT22;2960;49.142;7.768;2023-02-24T16:40:48;11.60;61.40
5868;DHT22;2960;49.142;7.768;2023-02-24T16:43:15;11.60;61.50
5868;DHT22;2960;49.142;7.768;2023-02-24T16:45:44;11.60;61.40
5868;DHT22;2960;49.142;7.768;2023-02-24T16:48:18;11.50;61.40
5868;DHT22;2960;49.142;7.768;2023-02-24T16:50:46;11.50;61.40
5868;DHT22;2960;49.142;7.768;2023-02-24T16:53:16;11.40;61.30
5868;DHT22;2960;49.142;7.768;2023-02-24T16:55:44;11.40;61.40